Mayport Ns (Adm David L. Mcdonald Field) Airport Mayport US
ICAO: KNRB
IATA: NRB
Category: Medium
Scheduled Services: No

Elevation: 15 ft
TransAlt. 18000 ft.

Airport Communications:
JACKSONVILLE APP/DEP:124.9
ATIS:26.86
GND:126.5
PTD:30.85
TWR:118.75

KNRB Zoom In..

Runways:

(A) RW 05 length 8001 ft width 200 ft
---- / hdg 46

(B) RW 23 length 8001 ft width 200 ft
---- / hdg 226

Location; KNRB
Day. 19 / Time. 20.52 Zulu
* Altimeter: 29.91
* Temperature: 27° c. 80.6°f.
* Wind from: 210° Speed 09 kn.
Dewpoint: 24° c.
Visibility: 10 Statute Miles.
Clouds: Few 1500 ft.
Clouds: Broken 1000 ft.
Clouds: Overcast 25000 ft.

KNRB 192052Z 21009KT 10SM FEW015 BKN100 OVC250 27/24 A2991 RMK AO2 SLP126 T2 SET 60010 T02670244 58011 $


Wind From 210°
Speed 09 kn.

 
 
jpsmedia.com for Web Design worldairports.se 2018   terms of use